Cape Hatteras National Seash, North Carolina
Current Conditions -  °F | °C
As of 10:15 AM on Friday 31 Oct 2014 (Local Time) from KMQI Reporting Station
Broken Clouds Broken Clouds  
Wind Chill: 60°   Ceiling: 5000
Heat Index: 60°   Visibility: 10mi
Dew Point: 47°   Wind: 20mph
Humidity: 63%   Direction: 40°NE
Pressure: 29.86"   Gusts: 23mph
Location:  35.8834°N, 75.6616°W
Report Text: KMQI 311415Z AUTO 04017G20KT 10SM BKN050 15/08 A2986 RMK AO2 T01530082
Loading
Personal Weather Stations






























Interactive Weather Map
Tropical Storm Tracking
New forecast layout! Learn more

10-Day Weather Forecast

Advertisements
Track Severe Weather on mobile